createdAt,value
2022-10-04T00:00:41.321Z,1.58
2022-10-04T00:03:44.862Z,1.33
2022-10-04T00:06:49.792Z,1.70
2022-10-04T00:09:54.501Z,1.37
2022-10-04T00:12:59.009Z,1.38
2022-10-04T00:16:02.030Z,1.42
2022-10-04T00:19:10.736Z,1.50
2022-10-04T00:22:14.178Z,1.80
2022-10-04T00:25:17.785Z,1.30
2022-10-04T00:28:20.236Z,1.42
2022-10-04T00:31:29.316Z,1.58
2022-10-04T00:34:31.538Z,1.67
2022-10-04T00:37:54.215Z,1.25
2022-10-04T00:41:01.997Z,1.20
2022-10-04T00:44:05.702Z,1.52
2022-10-04T00:47:22.590Z,1.67
2022-10-04T00:50:36.739Z,1.35
2022-10-04T00:53:50.041Z,1.20
2022-10-04T00:56:53.614Z,1.67
2022-10-04T00:59:58.103Z,1.55
2022-10-04T01:03:03.304Z,1.52
2022-10-04T01:06:06.394Z,1.60
2022-10-04T01:09:09.820Z,1.67
2022-10-04T01:12:41.918Z,1.83
2022-10-04T01:15:56.547Z,1.50
2022-10-04T01:19:19.031Z,1.50
2022-10-04T01:22:40.483Z,1.95
2022-10-04T01:25:43.951Z,1.50
2022-10-04T01:28:46.148Z,1.70
2022-10-04T01:31:49.681Z,1.85
2022-10-04T01:34:52.191Z,1.70
2022-10-04T01:37:55.840Z,1.55
2022-10-04T01:41:00.448Z,1.58
2022-10-04T01:44:04.341Z,1.47
2022-10-04T01:47:09.827Z,1.70
2022-10-04T01:50:20.465Z,1.52
2022-10-04T01:53:29.845Z,1.70
2022-10-04T01:56:33.943Z,1.75
2022-10-04T01:59:45.962Z,1.50
2022-10-04T02:02:59.638Z,2.33
2022-10-04T02:06:03.920Z,1.85
2022-10-04T02:09:13.605Z,1.95
2022-10-04T02:12:20.181Z,1.83
2022-10-04T02:15:26.727Z,2.07
2022-10-04T02:18:30.258Z,1.75
2022-10-04T02:21:32.644Z,1.98
2022-10-04T02:24:37.549Z,2.20
2022-10-04T02:27:40.044Z,2.22
2022-10-04T02:30:44.598Z,2.20
2022-10-04T02:33:48.733Z,2.10
2022-10-04T02:36:51.814Z,2.42
2022-10-04T02:39:56.028Z,2.75
2022-10-04T02:43:09.144Z,2.65
2022-10-04T02:46:17.937Z,3.40
2022-10-04T02:49:24.060Z,2.63
2022-10-04T02:52:27.728Z,2.92
2022-10-04T02:55:31.282Z,2.60
2022-10-04T02:58:37.420Z,2.20
2022-10-04T03:01:59.034Z,2.43
2022-10-04T03:05:09.889Z,2.40
2022-10-04T03:08:12.817Z,3.10
2022-10-04T03:11:16.084Z,2.40
2022-10-04T03:14:22.596Z,2.20
2022-10-04T03:17:25.519Z,2.60
2022-10-04T03:20:28.087Z,2.17
2022-10-04T03:23:30.797Z,2.58
2022-10-04T03:26:38.371Z,2.67
2022-10-04T03:29:43.200Z,2.40
2022-10-04T03:32:45.919Z,2.30
2022-10-04T03:35:50.416Z,2.03
2022-10-04T03:38:53.992Z,2.28
2022-10-04T03:41:58.801Z,2.17
2022-10-04T03:45:02.017Z,2.30
2022-10-04T03:48:05.665Z,2.23
2022-10-04T03:51:10.959Z,2.50
2022-10-04T03:54:16.656Z,2.38
2022-10-04T03:57:19.129Z,2.15
2022-10-04T04:00:21.951Z,2.22
2022-10-04T04:03:26.432Z,2.47
2022-10-04T04:06:35.329Z,2.47
2022-10-04T04:09:37.432Z,2.42
2022-10-04T04:12:40.161Z,2.60
2022-10-04T04:15:43.456Z,2.60
2022-10-04T04:18:46.297Z,2.50
2022-10-04T04:21:48.935Z,2.40
2022-10-04T04:24:52.165Z,2.30
2022-10-04T04:28:00.180Z,2.50
2022-10-04T04:31:09.581Z,2.22
2022-10-04T04:34:23.057Z,2.27
2022-10-04T04:37:25.329Z,2.17
2022-10-04T04:40:27.469Z,2.33
2022-10-04T04:43:29.895Z,2.08
2022-10-04T04:46:32.191Z,2.10
2022-10-04T04:49:38.021Z,2.70
2022-10-04T04:52:40.716Z,2.53
2022-10-04T04:56:03.289Z,2.40
2022-10-04T04:59:07.521Z,2.10
2022-10-04T05:02:28.303Z,2.53
2022-10-04T05:05:31.910Z,2.20
2022-10-04T05:08:40.993Z,2.10
2022-10-04T05:11:44.036Z,2.33
2022-10-04T05:14:48.370Z,2.40
2022-10-04T05:17:50.527Z,2.30
2022-10-04T05:20:54.098Z,2.00
2022-10-04T05:23:57.580Z,2.03
2022-10-04T05:27:04.411Z,2.15
2022-10-04T05:30:09.241Z,1.60
2022-10-04T05:33:14.714Z,2.05
2022-10-04T05:36:17.000Z,1.87
2022-10-04T05:39:26.751Z,2.10
2022-10-04T05:42:47.073Z,1.98
2022-10-04T05:46:27.609Z,1.85
2022-10-04T05:49:39.336Z,1.80
2022-10-04T05:52:47.315Z,1.90
2022-10-04T05:56:15.628Z,2.10
2022-10-04T05:59:38.112Z,1.95
2022-10-04T06:03:01.567Z,1.80
2022-10-04T06:06:26.943Z,2.00
2022-10-04T06:09:52.968Z,1.80
2022-10-04T06:13:29.100Z,2.05
2022-10-04T06:16:43.383Z,1.88
2022-10-04T06:20:04.217Z,2.00
2022-10-04T06:23:12.105Z,1.80
2022-10-04T06:26:19.992Z,1.93
2022-10-04T06:29:28.498Z,2.10
2022-10-04T06:32:36.972Z,2.10
2022-10-04T06:35:42.756Z,1.73
2022-10-04T06:38:54.195Z,1.80
2022-10-04T06:41:56.543Z,2.27
2022-10-04T06:45:06.803Z,2.00
2022-10-04T06:48:17.430Z,2.20
2022-10-04T06:51:40.957Z,2.22
2022-10-04T06:54:57.484Z,2.10
2022-10-04T06:58:15.260Z,1.97
2022-10-04T07:01:32.459Z,2.10
2022-10-04T07:05:07.727Z,1.88
2022-10-04T07:08:40.878Z,2.25
2022-10-04T07:11:52.974Z,2.00
2022-10-04T07:15:02.927Z,2.07
2022-10-04T07:18:09.686Z,2.17
2022-10-04T07:21:14.257Z,2.13
2022-10-04T07:24:24.762Z,2.30
2022-10-04T07:27:33.564Z,2.28
2022-10-04T07:30:38.717Z,2.10
2022-10-04T07:33:46.641Z,2.40
2022-10-04T07:36:51.895Z,2.10
2022-10-04T07:39:57.394Z,2.00
2022-10-04T07:43:15.047Z,2.05
2022-10-04T07:46:26.617Z,1.90
2022-10-04T07:49:35.750Z,2.08
2022-10-04T07:53:09.595Z,1.90
2022-10-04T07:56:37.678Z,1.90
2022-10-04T08:00:13.237Z,1.80
2022-10-04T08:03:39.766Z,1.80
2022-10-04T08:06:52.693Z,2.13
2022-10-04T08:10:14.569Z,2.00
2022-10-04T08:13:16.776Z,1.58
2022-10-04T08:16:19.173Z,1.58
2022-10-04T08:19:21.396Z,2.10
2022-10-04T08:22:30.331Z,1.77
2022-10-04T08:25:39.029Z,1.80
2022-10-04T08:29:00.031Z,1.80
2022-10-04T08:32:25.750Z,1.50
2022-10-04T08:35:36.477Z,1.80
2022-10-04T08:38:44.998Z,1.70
2022-10-04T08:42:04.923Z,1.83
2022-10-04T08:45:17.106Z,1.48
2022-10-04T08:48:25.736Z,1.70
2022-10-04T08:51:40.408Z,1.63
2022-10-04T08:55:02.409Z,1.90
2022-10-04T08:58:24.538Z,1.48
2022-10-04T09:01:46.738Z,1.60
2022-10-04T09:05:07.951Z,1.60
2022-10-04T09:08:19.936Z,1.47
2022-10-04T09:11:42.901Z,1.45
2022-10-04T09:15:06.584Z,1.35
2022-10-04T09:18:12.012Z,1.70
2022-10-04T09:21:41.098Z,1.65
2022-10-04T09:24:52.585Z,1.50
2022-10-04T09:28:04.198Z,1.55
2022-10-04T09:31:08.667Z,1.58
2022-10-04T09:34:33.796Z,1.63
2022-10-04T09:38:04.249Z,1.30
2022-10-04T09:41:06.576Z,1.40
2022-10-04T09:44:27.452Z,1.48
2022-10-04T09:47:41.389Z,1.48
2022-10-04T09:50:56.392Z,1.45
2022-10-04T09:54:19.938Z,1.40
2022-10-04T09:57:41.494Z,1.30
2022-10-04T10:00:44.657Z,1.42
2022-10-04T10:04:05.691Z,1.35
2022-10-04T10:07:14.430Z,1.27
2022-10-04T10:10:38.691Z,1.55
2022-10-04T10:13:47.896Z,1.57
2022-10-04T10:17:16.296Z,1.20
2022-10-04T10:20:27.457Z,1.80
2022-10-04T10:23:37.767Z,1.27
2022-10-04T10:26:52.839Z,1.50
2022-10-04T10:30:05.140Z,1.43
2022-10-04T10:33:20.581Z,1.60
2022-10-04T10:36:42.579Z,1.65
2022-10-04T10:39:59.682Z,1.95
2022-10-04T10:43:02.741Z,1.25
2022-10-04T10:46:10.579Z,1.50
2022-10-04T10:49:32.132Z,1.50
2022-10-04T10:52:42.514Z,1.73
2022-10-04T10:56:14.714Z,1.40
2022-10-04T10:59:41.093Z,1.40
2022-10-04T11:03:12.113Z,1.80
2022-10-04T11:06:22.795Z,1.40
2022-10-04T11:09:41.175Z,1.40
2022-10-04T11:13:03.435Z,1.30
2022-10-04T11:16:12.197Z,1.02
2022-10-04T11:19:32.969Z,1.20
2022-10-04T11:22:38.328Z,1.33
2022-10-04T11:25:53.201Z,1.23
2022-10-04T11:28:58.941Z,1.20
2022-10-04T11:32:01.680Z,1.30
2022-10-04T11:35:22.811Z,1.13
2022-10-04T11:38:27.782Z,1.00
2022-10-04T11:41:35.223Z,1.20
2022-10-04T11:44:43.718Z,1.05
2022-10-04T11:48:11.461Z,1.00
2022-10-04T11:51:22.967Z,1.10
2022-10-04T11:54:38.971Z,1.17
2022-10-04T11:57:42.431Z,0.93
2022-10-04T12:01:01.654Z,0.90
2022-10-04T12:04:22.720Z,1.00
2022-10-04T12:07:28.282Z,0.90
2022-10-04T12:10:38.480Z,0.88
2022-10-04T12:13:47.938Z,0.90
2022-10-04T12:16:52.882Z,0.75
2022-10-04T12:20:28.007Z,0.60
2022-10-04T12:23:50.889Z,0.77
2022-10-04T12:27:08.770Z,1.00
2022-10-04T12:30:31.934Z,0.90
2022-10-04T12:33:44.876Z,1.10
2022-10-04T12:37:07.138Z,0.82
2022-10-04T12:40:12.653Z,1.03
2022-10-04T12:43:24.169Z,1.00
2022-10-04T12:46:49.010Z,1.10
2022-10-04T12:50:03.457Z,1.13
2022-10-04T12:53:25.128Z,1.20
2022-10-04T12:56:33.652Z,1.30
2022-10-04T12:59:56.326Z,1.20
2022-10-04T13:03:02.895Z,1.05
2022-10-04T13:06:33.603Z,1.10
2022-10-04T13:10:05.443Z,1.27
2022-10-04T13:13:18.699Z,1.03
2022-10-04T13:20:09.844Z,1.00
2022-10-04T13:23:21.156Z,0.90
2022-10-04T13:26:46.552Z,0.80
2022-10-04T13:29:56.947Z,0.90
2022-10-04T13:33:11.334Z,0.80
2022-10-04T13:36:14.555Z,0.80
2022-10-04T13:39:23.756Z,0.70
2022-10-04T13:42:41.735Z,0.70
2022-10-04T13:45:48.128Z,0.60
2022-10-04T13:49:17.190Z,0.70
2022-10-04T13:52:41.485Z,0.70
2022-10-04T13:56:23.988Z,0.75
2022-10-04T13:59:35.113Z,0.73
2022-10-04T14:02:47.060Z,0.70
2022-10-04T14:05:49.558Z,0.70
2022-10-04T14:08:52.724Z,0.63
2022-10-04T14:12:13.935Z,0.57
2022-10-04T14:15:34.389Z,0.65
2022-10-04T14:18:42.326Z,0.60
2022-10-04T14:21:44.805Z,0.70
2022-10-04T14:24:54.186Z,0.80
2022-10-04T14:27:56.627Z,0.65
2022-10-04T14:31:20.246Z,0.60
2022-10-04T14:34:34.908Z,0.70
2022-10-04T14:37:37.374Z,0.63
2022-10-04T14:40:43.146Z,0.60
2022-10-04T14:44:20.968Z,0.60
2022-10-04T14:47:26.509Z,0.70
2022-10-04T14:50:28.836Z,0.57
2022-10-04T14:53:35.559Z,0.68
2022-10-04T14:56:42.781Z,0.80
2022-10-04T14:59:59.217Z,0.90
2022-10-04T15:03:05.683Z,0.95
2022-10-04T15:06:16.575Z,1.30
2022-10-04T15:09:26.760Z,0.73
2022-10-04T15:12:45.801Z,0.75
2022-10-04T15:16:02.831Z,0.80
2022-10-04T15:19:25.398Z,0.80
2022-10-04T15:22:30.463Z,0.60
2022-10-04T15:25:41.973Z,0.85
2022-10-04T15:28:51.196Z,0.90
2022-10-04T15:32:12.099Z,1.10
2022-10-04T15:35:14.927Z,1.02
2022-10-04T15:38:17.962Z,0.70
2022-10-04T15:41:26.302Z,1.15
2022-10-04T15:44:40.911Z,1.15
2022-10-04T15:47:49.239Z,1.00
2022-10-04T15:50:54.594Z,0.80
2022-10-04T15:54:06.140Z,1.20
2022-10-04T15:57:31.300Z,0.80
2022-10-04T16:00:52.460Z,0.98
2022-10-04T16:03:54.764Z,1.02
2022-10-04T16:07:00.881Z,1.00
2022-10-04T16:10:22.369Z,1.20
2022-10-04T16:13:36.618Z,0.98
2022-10-04T16:16:39.993Z,1.20
2022-10-04T16:19:55.240Z,1.10
2022-10-04T16:23:16.830Z,1.10
2022-10-04T16:26:19.718Z,1.10
2022-10-04T16:30:25.216Z,1.50
2022-10-04T16:33:24.263Z,1.15
2022-10-04T16:36:32.120Z,1.58
2022-10-04T16:39:53.330Z,1.48
2022-10-04T16:42:57.659Z,1.40
2022-10-04T16:46:09.945Z,1.20
2022-10-04T16:49:30.559Z,1.42
2022-10-04T16:52:46.158Z,2.03
2022-10-04T16:55:51.163Z,1.55
2022-10-04T16:59:03.034Z,1.90
2022-10-04T17:02:23.693Z,1.50
2022-10-04T17:05:44.356Z,1.60
2022-10-04T17:08:50.027Z,1.83
2022-10-04T17:12:11.207Z,1.98
2022-10-04T17:15:28.704Z,2.27
2022-10-04T17:18:37.075Z,2.15
2022-10-04T17:21:48.701Z,2.38
2022-10-04T17:25:09.707Z,2.40
2022-10-04T17:28:32.213Z,2.30
2022-10-04T17:31:52.675Z,2.40
2022-10-04T17:35:12.483Z,2.63
2022-10-04T17:38:18.968Z,2.63
2022-10-04T17:41:24.895Z,2.65
2022-10-04T17:44:50.406Z,3.38
2022-10-04T17:48:27.476Z,2.90
2022-10-04T17:51:57.035Z,3.28
2022-10-04T17:55:15.889Z,4.03
2022-10-04T17:58:20.648Z,3.70
2022-10-04T18:01:28.965Z,4.15
2022-10-04T18:04:34.624Z,4.43
2022-10-04T18:07:46.808Z,4.45
2022-10-04T18:11:03.724Z,3.65
2022-10-04T18:14:10.515Z,4.03
2022-10-04T18:17:26.147Z,4.15
2022-10-04T18:20:33.589Z,4.53
2022-10-04T18:23:41.924Z,4.35
2022-10-04T18:27:10.580Z,4.57
2022-10-04T18:30:15.373Z,4.53
2022-10-04T18:33:23.722Z,4.80
2022-10-04T18:36:32.032Z,4.50
2022-10-04T18:39:50.670Z,4.20
2022-10-04T18:43:23.715Z,4.53
2022-10-04T18:46:37.228Z,5.20
2022-10-04T18:49:48.478Z,5.63
2022-10-04T18:52:58.099Z,7.50
2022-10-04T18:56:08.009Z,6.38
2022-10-04T18:59:28.722Z,6.82
2022-10-04T19:02:35.118Z,6.57
2022-10-04T19:05:52.242Z,6.57
2022-10-04T19:09:04.378Z,6.97
2022-10-04T19:12:13.172Z,6.07
2022-10-04T19:15:21.527Z,7.57
2022-10-04T19:18:26.807Z,7.57
2022-10-04T19:21:35.374Z,7.35
2022-10-04T19:24:37.536Z,6.97
2022-10-04T19:27:46.760Z,7.07
2022-10-04T19:31:08.078Z,6.47
2022-10-04T19:34:18.516Z,6.15
2022-10-04T19:37:25.603Z,5.80
2022-10-04T19:40:27.813Z,6.17
2022-10-04T19:43:42.974Z,6.65
2022-10-04T19:46:51.197Z,6.20
2022-10-04T19:50:13.194Z,6.07
2022-10-04T19:53:19.746Z,6.18
2022-10-04T19:56:23.871Z,5.67
2022-10-04T19:59:37.119Z,4.55
2022-10-04T20:02:48.205Z,5.18
2022-10-04T20:05:53.347Z,6.15
2022-10-04T20:09:02.284Z,6.35
2022-10-04T20:12:05.449Z,6.17
2022-10-04T20:15:16.905Z,6.50
2022-10-04T20:18:34.493Z,6.43
2022-10-04T20:21:36.815Z,5.32
2022-10-04T20:24:41.910Z,6.07
2022-10-04T20:27:44.091Z,6.37
2022-10-04T20:30:52.419Z,6.30
2022-10-04T20:33:54.627Z,6.72
2022-10-04T20:36:57.009Z,6.38
2022-10-04T20:39:59.306Z,5.82
2022-10-04T20:43:13.613Z,6.07
2022-10-04T20:46:22.757Z,5.70
2022-10-04T20:49:25.130Z,5.85
2022-10-04T20:52:34.882Z,6.95
2022-10-04T20:55:38.940Z,7.47
2022-10-04T20:58:41.418Z,7.10
2022-10-04T21:01:59.896Z,9.48
2022-10-04T21:05:12.137Z,11.95
2022-10-04T21:08:19.728Z,10.80
2022-10-04T21:11:22.277Z,10.77
2022-10-04T21:14:34.687Z,11.33
2022-10-04T21:17:37.293Z,11.68
2022-10-04T21:20:46.507Z,11.13
2022-10-04T21:23:48.727Z,10.45
2022-10-04T21:26:57.620Z,11.45
2022-10-04T21:30:00.575Z,11.17
2022-10-04T21:33:02.783Z,11.30
2022-10-04T21:36:05.808Z,11.65
2022-10-04T21:39:07.996Z,20.10
2022-10-04T21:42:10.720Z,9.82
2022-10-04T21:45:12.899Z,10.70
2022-10-04T21:48:15.246Z,12.65
2022-10-04T21:51:17.408Z,10.90
2022-10-04T21:54:19.524Z,9.82
2022-10-04T21:57:24.051Z,10.32
2022-10-04T22:00:26.393Z,10.30
2022-10-04T22:03:28.620Z,10.65
2022-10-04T22:06:31.174Z,11.07
2022-10-04T22:09:34.569Z,10.43
2022-10-04T22:12:37.027Z,14.02
2022-10-04T22:15:39.227Z,20.13
2022-10-04T22:18:41.748Z,12.55
2022-10-04T22:21:44.190Z,12.90
2022-10-04T22:24:46.416Z,14.57
2022-10-04T22:27:49.042Z,11.35
2022-10-04T22:30:53.190Z,12.80
2022-10-04T22:33:55.669Z,14.05
2022-10-04T22:36:57.818Z,11.98
2022-10-04T22:40:00.043Z,12.68
2022-10-04T22:43:04.555Z,12.52
2022-10-04T22:46:12.167Z,11.60
2022-10-04T22:49:17.911Z,11.43
2022-10-04T22:52:22.266Z,11.02
2022-10-04T22:55:24.712Z,12.35
2022-10-04T22:58:26.892Z,12.13
2022-10-04T23:01:29.109Z,11.90
2022-10-04T23:04:31.402Z,11.43
2022-10-04T23:07:37.527Z,11.75
2022-10-04T23:10:40.608Z,13.07
2022-10-04T23:13:42.811Z,11.60
2022-10-04T23:16:45.705Z,12.10
2022-10-04T23:19:48.399Z,14.57
2022-10-04T23:22:51.919Z,10.40
2022-10-04T23:25:54.522Z,11.43
2022-10-04T23:28:57.452Z,11.23
2022-10-04T23:32:01.483Z,12.17
2022-10-04T23:35:04.095Z,12.88
2022-10-04T23:38:10.410Z,12.15
2022-10-04T23:41:12.632Z,12.20
2022-10-04T23:44:16.059Z,12.40
2022-10-04T23:47:19.087Z,11.53
2022-10-04T23:50:21.630Z,11.30
2022-10-04T23:53:26.781Z,10.93
2022-10-04T23:56:29.542Z,25.23
2022-10-04T23:59:32.004Z,13.43
